sensor_id;sensor_type;location;lat;lon;timestamp;temperature;humidity
69009;SHT31;56065;52.472;13.380;2023-12-04T00:00:35;-2.21;86.27
69009;SHT31;56065;52.472;13.380;2023-12-04T00:03:00;-2.18;86.59
69009;SHT31;56065;52.472;13.380;2023-12-04T00:05:25;-2.18;86.75
69009;SHT31;56065;52.472;13.380;2023-12-04T00:07:51;-2.16;86.67
69009;SHT31;56065;52.472;13.380;2023-12-04T00:10:16;-2.19;86.46
69009;SHT31;56065;52.472;13.380;2023-12-04T00:12:42;-2.21;86.69
69009;SHT31;56065;52.472;13.380;2023-12-04T00:15:07;-2.25;86.44
69009;SHT31;56065;52.472;13.380;2023-12-04T00:17:33;-2.26;86.92
69009;SHT31;56065;52.472;13.380;2023-12-04T00:19:58;-2.23;86.83
69009;SHT31;56065;52.472;13.380;2023-12-04T00:22:24;-2.25;87.08
69009;SHT31;56065;52.472;13.380;2023-12-04T00:24:49;-2.28;86.83
69009;SHT31;56065;52.472;13.380;2023-12-04T00:27:15;-2.25;87.81
69009;SHT31;56065;52.472;13.380;2023-12-04T00:29:40;-2.22;87.38
69009;SHT31;56065;52.472;13.380;2023-12-04T00:32:05;-2.26;87.57
69009;SHT31;56065;52.472;13.380;2023-12-04T00:34:31;-2.26;87.12
69009;SHT31;56065;52.472;13.380;2023-12-04T00:36:56;-2.31;86.91
69009;SHT31;56065;52.472;13.380;2023-12-04T00:39:21;-2.29;87.42
69009;SHT31;56065;52.472;13.380;2023-12-04T00:41:47;-2.26;87.23
69009;SHT31;56065;52.472;13.380;2023-12-04T00:44:12;-2.22;88.15
69009;SHT31;56065;52.472;13.380;2023-12-04T00:46:37;-2.23;88.18
69009;SHT31;56065;52.472;13.380;2023-12-04T00:49:03;-2.29;88.73
69009;SHT31;56065;52.472;13.380;2023-12-04T00:51:28;-2.23;89.89
69009;SHT31;56065;52.472;13.380;2023-12-04T00:53:53;-2.18;89.26
69009;SHT31;56065;52.472;13.380;2023-12-04T00:56:19;-2.13;89.14
69009;SHT31;56065;52.472;13.380;2023-12-04T00:58:45;-2.09;89.36
69009;SHT31;56065;52.472;13.380;2023-12-04T01:01:11;-2.11;89.40
69009;SHT31;56065;52.472;13.380;2023-12-04T01:03:37;-2.01;89.35
69009;SHT31;56065;52.472;13.380;2023-12-04T01:06:03;-1.98;89.31
69009;SHT31;56065;52.472;13.380;2023-12-04T01:08:28;-1.98;88.97
69009;SHT31;56065;52.472;13.380;2023-12-04T01:10:54;-2.03;88.35
69009;SHT31;56065;52.472;13.380;2023-12-04T01:13:19;-2.11;88.31
69009;SHT31;56065;52.472;13.380;2023-12-04T01:15:44;-2.13;88.19
69009;SHT31;56065;52.472;13.380;2023-12-04T01:18:11;-2.22;87.99
69009;SHT31;56065;52.472;13.380;2023-12-04T01:20:37;-2.26;87.85
69009;SHT31;56065;52.472;13.380;2023-12-04T01:23:02;-2.31;87.82
69009;SHT31;56065;52.472;13.380;2023-12-04T01:25:27;-2.40;87.95
69009;SHT31;56065;52.472;13.380;2023-12-04T01:27:53;-2.52;87.86
69009;SHT31;56065;52.472;13.380;2023-12-04T01:30:18;-2.60;88.04
69009;SHT31;56065;52.472;13.380;2023-12-04T01:32:43;-2.63;88.22
69009;SHT31;56065;52.472;13.380;2023-12-04T01:35:09;-2.62;88.22
69009;SHT31;56065;52.472;13.380;2023-12-04T01:37:34;-2.64;88.41
69009;SHT31;56065;52.472;13.380;2023-12-04T01:39:59;-2.67;88.63
69009;SHT31;56065;52.472;13.380;2023-12-04T01:42:25;-2.71;88.37
69009;SHT31;56065;52.472;13.380;2023-12-04T01:44:50;-2.66;88.30
69009;SHT31;56065;52.472;13.380;2023-12-04T01:47:17;-2.69;88.31
69009;SHT31;56065;52.472;13.380;2023-12-04T01:49:43;-2.69;88.33
69009;SHT31;56065;52.472;13.380;2023-12-04T01:52:08;-2.66;88.18
69009;SHT31;56065;52.472;13.380;2023-12-04T01:54:35;-2.57;88.09
69009;SHT31;56065;52.472;13.380;2023-12-04T01:57:02;-2.59;88.25
69009;SHT31;56065;52.472;13.380;2023-12-04T01:59:28;-2.59;88.27
69009;SHT31;56065;52.472;13.380;2023-12-04T02:01:53;-2.49;87.98
69009;SHT31;56065;52.472;13.380;2023-12-04T02:04:19;-2.49;87.81
69009;SHT31;56065;52.472;13.380;2023-12-04T02:06:44;-2.48;88.01
69009;SHT31;56065;52.472;13.380;2023-12-04T02:09:09;-2.43;87.96
69009;SHT31;56065;52.472;13.380;2023-12-04T02:11:38;-2.39;87.90
69009;SHT31;56065;52.472;13.380;2023-12-04T02:14:04;-2.39;88.02
69009;SHT31;56065;52.472;13.380;2023-12-04T02:16:30;-2.42;88.22
69009;SHT31;56065;52.472;13.380;2023-12-04T02:18:57;-2.45;88.64
69009;SHT31;56065;52.472;13.380;2023-12-04T02:21:22;-2.38;88.48
69009;SHT31;56065;52.472;13.380;2023-12-04T02:23:49;-2.32;88.34
69009;SHT31;56065;52.472;13.380;2023-12-04T02:26:16;-2.39;88.31
69009;SHT31;56065;52.472;13.380;2023-12-04T02:28:46;-2.39;88.45
69009;SHT31;56065;52.472;13.380;2023-12-04T02:31:16;-2.33;88.29
69009;SHT31;56065;52.472;13.380;2023-12-04T02:33:45;-2.36;88.28
69009;SHT31;56065;52.472;13.380;2023-12-04T02:36:12;-2.42;88.23
69009;SHT31;56065;52.472;13.380;2023-12-04T02:38:38;-2.46;88.25
69009;SHT31;56065;52.472;13.380;2023-12-04T02:41:04;-2.40;88.14
69009;SHT31;56065;52.472;13.380;2023-12-04T02:43:29;-2.46;88.34
69009;SHT31;56065;52.472;13.380;2023-12-04T02:45:54;-2.50;88.21
69009;SHT31;56065;52.472;13.380;2023-12-04T02:48:20;-2.49;88.53
69009;SHT31;56065;52.472;13.380;2023-12-04T02:50:45;-2.54;88.65
69009;SHT31;56065;52.472;13.380;2023-12-04T02:53:10;-2.56;88.81
69009;SHT31;56065;52.472;13.380;2023-12-04T02:55:36;-2.53;88.80
69009;SHT31;56065;52.472;13.380;2023-12-04T02:58:01;-2.53;88.92
69009;SHT31;56065;52.472;13.380;2023-12-04T03:00:26;-2.50;88.80
69009;SHT31;56065;52.472;13.380;2023-12-04T03:02:52;-2.50;88.83
69009;SHT31;56065;52.472;13.380;2023-12-04T03:05:19;-2.43;88.72
69009;SHT31;56065;52.472;13.380;2023-12-04T03:07:44;-2.45;88.20
69009;SHT31;56065;52.472;13.380;2023-12-04T03:10:10;-2.46;88.09
69009;SHT31;56065;52.472;13.380;2023-12-04T03:12:36;-2.50;88.10
69009;SHT31;56065;52.472;13.380;2023-12-04T03:15:01;-2.53;88.30
69009;SHT31;56065;52.472;13.380;2023-12-04T03:17:27;-2.54;88.15
69009;SHT31;56065;52.472;13.380;2023-12-04T03:19:52;-2.56;88.13
69009;SHT31;56065;52.472;13.380;2023-12-04T03:22:17;-2.59;88.13
69009;SHT31;56065;52.472;13.380;2023-12-04T03:24:43;-2.62;88.13
69009;SHT31;56065;52.472;13.380;2023-12-04T03:27:08;-2.66;88.30
69009;SHT31;56065;52.472;13.380;2023-12-04T03:29:33;-2.62;88.06
69009;SHT31;56065;52.472;13.380;2023-12-04T03:31:59;-2.67;88.25
69009;SHT31;56065;52.472;13.380;2023-12-04T03:34:24;-2.70;88.53
69009;SHT31;56065;52.472;13.380;2023-12-04T03:36:49;-2.66;88.34
69009;SHT31;56065;52.472;13.380;2023-12-04T03:39:15;-2.70;88.31
69009;SHT31;56065;52.472;13.380;2023-12-04T03:41:40;-2.63;88.35
69009;SHT31;56065;52.472;13.380;2023-12-04T03:44:05;-2.63;88.12
69009;SHT31;56065;52.472;13.380;2023-12-04T03:46:31;-2.62;88.08
69009;SHT31;56065;52.472;13.380;2023-12-04T03:48:56;-2.63;88.31
69009;SHT31;56065;52.472;13.380;2023-12-04T03:51:21;-2.59;88.05
69009;SHT31;56065;52.472;13.380;2023-12-04T03:53:47;-2.59;88.04
69009;SHT31;56065;52.472;13.380;2023-12-04T03:56:12;-2.56;87.95
69009;SHT31;56065;52.472;13.380;2023-12-04T03:58:38;-2.60;88.01
69009;SHT31;56065;52.472;13.380;2023-12-04T04:01:04;-2.63;87.90
69009;SHT31;56065;52.472;13.380;2023-12-04T04:03:29;-2.63;87.89
69009;SHT31;56065;52.472;13.380;2023-12-04T04:05:55;-2.64;88.18
69009;SHT31;56065;52.472;13.380;2023-12-04T04:08:20;-2.62;87.92
69009;SHT31;56065;52.472;13.380;2023-12-04T04:10:45;-2.62;87.90
69009;SHT31;56065;52.472;13.380;2023-12-04T04:13:11;-2.66;88.19
69009;SHT31;56065;52.472;13.380;2023-12-04T04:15:36;-2.66;88.28
69009;SHT31;56065;52.472;13.380;2023-12-04T04:18:01;-2.66;88.10
69009;SHT31;56065;52.472;13.380;2023-12-04T04:20:27;-2.67;88.13
69009;SHT31;56065;52.472;13.380;2023-12-04T04:22:52;-2.67;88.10
69009;SHT31;56065;52.472;13.380;2023-12-04T04:25:18;-2.70;88.16
69009;SHT31;56065;52.472;13.380;2023-12-04T04:27:46;-2.73;88.08
69009;SHT31;56065;52.472;13.380;2023-12-04T04:30:12;-2.73;88.12
69009;SHT31;56065;52.472;13.380;2023-12-04T04:32:38;-2.73;88.13
69009;SHT31;56065;52.472;13.380;2023-12-04T04:35:04;-2.76;88.15
69009;SHT31;56065;52.472;13.380;2023-12-04T04:37:29;-2.79;88.11
69009;SHT31;56065;52.472;13.380;2023-12-04T04:39:55;-2.79;88.10
69009;SHT31;56065;52.472;13.380;2023-12-04T04:42:21;-2.73;88.13
69009;SHT31;56065;52.472;13.380;2023-12-04T04:44:47;-2.71;87.93
69009;SHT31;56065;52.472;13.380;2023-12-04T04:47:12;-2.77;87.92
69009;SHT31;56065;52.472;13.380;2023-12-04T04:49:37;-2.70;87.84
69009;SHT31;56065;52.472;13.380;2023-12-04T04:52:03;-2.70;87.77
69009;SHT31;56065;52.472;13.380;2023-12-04T04:54:31;-2.76;87.84
69009;SHT31;56065;52.472;13.380;2023-12-04T04:56:57;-2.70;87.63
69009;SHT31;56065;52.472;13.380;2023-12-04T04:59:22;-2.71;87.88
69009;SHT31;56065;52.472;13.380;2023-12-04T05:01:48;-2.70;87.71
69009;SHT31;56065;52.472;13.380;2023-12-04T05:04:13;-2.71;87.66
69009;SHT31;56065;52.472;13.380;2023-12-04T05:06:39;-2.67;87.59
69009;SHT31;56065;52.472;13.380;2023-12-04T05:09:04;-2.64;87.56
69009;SHT31;56065;52.472;13.380;2023-12-04T05:11:30;-2.71;87.68
69009;SHT31;56065;52.472;13.380;2023-12-04T05:13:55;-2.64;87.56
69009;SHT31;56065;52.472;13.380;2023-12-04T05:16:20;-2.67;87.47
69009;SHT31;56065;52.472;13.380;2023-12-04T05:18:46;-2.69;87.53
69009;SHT31;56065;52.472;13.380;2023-12-04T05:21:11;-2.70;87.49
69009;SHT31;56065;52.472;13.380;2023-12-04T05:23:40;-2.69;87.60
69009;SHT31;56065;52.472;13.380;2023-12-04T05:26:06;-2.62;87.78
69009;SHT31;56065;52.472;13.380;2023-12-04T05:28:32;-2.56;87.47
69009;SHT31;56065;52.472;13.380;2023-12-04T05:30:58;-2.52;87.79
69009;SHT31;56065;52.472;13.380;2023-12-04T05:33:24;-2.42;87.30
69009;SHT31;56065;52.472;13.380;2023-12-04T05:35:49;-2.42;87.45
69009;SHT31;56065;52.472;13.380;2023-12-04T05:38:18;-2.40;87.32
69009;SHT31;56065;52.472;13.380;2023-12-04T05:40:43;-2.38;87.18
69009;SHT31;56065;52.472;13.380;2023-12-04T05:43:09;-2.38;87.27
69009;SHT31;56065;52.472;13.380;2023-12-04T05:45:35;-2.42;87.18
69009;SHT31;56065;52.472;13.380;2023-12-04T05:48:00;-2.38;87.13
69009;SHT31;56065;52.472;13.380;2023-12-04T05:50:25;-2.40;87.20
69009;SHT31;56065;52.472;13.380;2023-12-04T05:52:51;-2.40;87.14
69009;SHT31;56065;52.472;13.380;2023-12-04T05:55:16;-2.35;87.07
69009;SHT31;56065;52.472;13.380;2023-12-04T05:57:43;-2.31;87.40
69009;SHT31;56065;52.472;13.380;2023-12-04T06:00:08;-2.23;87.42
69009;SHT31;56065;52.472;13.380;2023-12-04T06:02:44;-2.21;87.06
69009;SHT31;56065;52.472;13.380;2023-12-04T06:05:10;-2.22;86.98
69009;SHT31;56065;52.472;13.380;2023-12-04T06:07:37;-2.21;86.92
69009;SHT31;56065;52.472;13.380;2023-12-04T06:10:03;-2.22;86.98
69009;SHT31;56065;52.472;13.380;2023-12-04T06:12:29;-2.15;87.13
69009;SHT31;56065;52.472;13.380;2023-12-04T06:14:55;-2.16;86.80
69009;SHT31;56065;52.472;13.380;2023-12-04T06:17:20;-2.09;86.89
69009;SHT31;56065;52.472;13.380;2023-12-04T06:19:46;-2.12;86.89
69009;SHT31;56065;52.472;13.380;2023-12-04T06:22:12;-2.08;86.82
69009;SHT31;56065;52.472;13.380;2023-12-04T06:24:38;-2.13;86.83
69009;SHT31;56065;52.472;13.380;2023-12-04T06:27:03;-2.12;87.02
69009;SHT31;56065;52.472;13.380;2023-12-04T06:29:31;-2.18;87.10
69009;SHT31;56065;52.472;13.380;2023-12-04T06:31:57;-2.13;87.13
69009;SHT31;56065;52.472;13.380;2023-12-04T06:34:23;-2.09;87.82
69009;SHT31;56065;52.472;13.380;2023-12-04T06:36:49;-2.08;87.60
69009;SHT31;56065;52.472;13.380;2023-12-04T06:39:16;-1.99;87.29
69009;SHT31;56065;52.472;13.380;2023-12-04T06:41:42;-1.98;87.17
69009;SHT31;56065;52.472;13.380;2023-12-04T06:44:08;-1.95;87.19
69009;SHT31;56065;52.472;13.380;2023-12-04T06:46:37;-1.97;87.15
69009;SHT31;56065;52.472;13.380;2023-12-04T06:49:04;-1.94;87.06
69009;SHT31;56065;52.472;13.380;2023-12-04T06:51:30;-1.98;87.05
69009;SHT31;56065;52.472;13.380;2023-12-04T06:53:55;-1.91;87.07
69009;SHT31;56065;52.472;13.380;2023-12-04T06:56:20;-1.92;87.10
69009;SHT31;56065;52.472;13.380;2023-12-04T06:58:46;-1.85;87.13
69009;SHT31;56065;52.472;13.380;2023-12-04T07:01:11;-1.77;87.14
69009;SHT31;56065;52.472;13.380;2023-12-04T07:03:36;-1.75;86.91
69009;SHT31;56065;52.472;13.380;2023-12-04T07:06:02;-1.67;87.01
69009;SHT31;56065;52.472;13.380;2023-12-04T07:08:27;-1.59;87.01
69009;SHT31;56065;52.472;13.380;2023-12-04T07:10:53;-1.51;86.68
69009;SHT31;56065;52.472;13.380;2023-12-04T07:13:18;-1.53;86.51
69009;SHT31;56065;52.472;13.380;2023-12-04T07:15:44;-1.50;86.25
69009;SHT31;56065;52.472;13.380;2023-12-04T07:18:09;-1.47;86.40
69009;SHT31;56065;52.472;13.380;2023-12-04T07:20:35;-1.47;86.33
69009;SHT31;56065;52.472;13.380;2023-12-04T07:23:01;-1.40;86.28
69009;SHT31;56065;52.472;13.380;2023-12-04T07:25:26;-1.39;86.00
69009;SHT31;56065;52.472;13.380;2023-12-04T07:27:52;-1.26;86.39
69009;SHT31;56065;52.472;13.380;2023-12-04T07:30:17;-1.20;86.23
69009;SHT31;56065;52.472;13.380;2023-12-04T07:32:42;-1.15;85.93
69009;SHT31;56065;52.472;13.380;2023-12-04T07:35:08;-1.03;85.92
69009;SHT31;56065;52.472;13.380;2023-12-04T07:37:33;-1.08;85.42
69009;SHT31;56065;52.472;13.380;2023-12-04T07:39:59;-1.02;85.45
69009;SHT31;56065;52.472;13.380;2023-12-04T07:42:24;-1.03;85.45
69009;SHT31;56065;52.472;13.380;2023-12-04T07:44:49;-1.02;85.37
69009;SHT31;56065;52.472;13.380;2023-12-04T07:47:15;-1.00;85.06
69009;SHT31;56065;52.472;13.380;2023-12-04T07:49:41;-0.96;85.36
69009;SHT31;56065;52.472;13.380;2023-12-04T07:52:07;-0.89;85.31
69009;SHT31;56065;52.472;13.380;2023-12-04T07:54:32;-0.85;85.11
69009;SHT31;56065;52.472;13.380;2023-12-04T07:56:57;-0.79;84.84
69009;SHT31;56065;52.472;13.380;2023-12-04T07:59:23;-0.77;84.94
69009;SHT31;56065;52.472;13.380;2023-12-04T08:01:48;-0.71;84.35
69009;SHT31;56065;52.472;13.380;2023-12-04T08:04:14;-0.61;84.42
69009;SHT31;56065;52.472;13.380;2023-12-04T08:06:39;-0.58;84.15
69009;SHT31;56065;52.472;13.380;2023-12-04T08:09:04;-0.53;84.33
69009;SHT31;56065;52.472;13.380;2023-12-04T08:11:34;-0.51;84.08
69009;SHT31;56065;52.472;13.380;2023-12-04T08:13:59;-0.51;84.21
69009;SHT31;56065;52.472;13.380;2023-12-04T08:16:26;-0.34;84.00
69009;SHT31;56065;52.472;13.380;2023-12-04T08:18:54;-0.26;83.31
69009;SHT31;56065;52.472;13.380;2023-12-04T08:21:19;-0.27;83.10
69009;SHT31;56065;52.472;13.380;2023-12-04T08:23:44;-0.34;83.14
69009;SHT31;56065;52.472;13.380;2023-12-04T08:26:10;-0.26;83.36
69009;SHT31;56065;52.472;13.380;2023-12-04T08:28:35;-0.27;83.15
69009;SHT31;56065;52.472;13.380;2023-12-04T08:31:03;-0.27;83.15
69009;SHT31;56065;52.472;13.380;2023-12-04T08:33:28;-0.19;83.05
69009;SHT31;56065;52.472;13.380;2023-12-04T08:35:54;-0.09;82.86
69009;SHT31;56065;52.472;13.380;2023-12-04T08:38:19;-0.09;82.87
69009;SHT31;56065;52.472;13.380;2023-12-04T08:40:45;0.07;82.88
69009;SHT31;56065;52.472;13.380;2023-12-04T08:43:10;0.17;82.78
69009;SHT31;56065;52.472;13.380;2023-12-04T08:45:35;0.21;82.40
69009;SHT31;56065;52.472;13.380;2023-12-04T08:48:01;0.19;82.22
69009;SHT31;56065;52.472;13.380;2023-12-04T08:50:26;0.34;82.31
69009;SHT31;56065;52.472;13.380;2023-12-04T08:52:52;0.41;82.02
69009;SHT31;56065;52.472;13.380;2023-12-04T08:55:17;0.45;81.72
69009;SHT31;56065;52.472;13.380;2023-12-04T08:57:43;0.53;81.75
69009;SHT31;56065;52.472;13.380;2023-12-04T09:00:08;0.59;81.55
69009;SHT31;56065;52.472;13.380;2023-12-04T09:02:34;0.55;81.59
69009;SHT31;56065;52.472;13.380;2023-12-04T09:05:00;0.53;81.36
69009;SHT31;56065;52.472;13.380;2023-12-04T09:07:26;0.69;81.61
69009;SHT31;56065;52.472;13.380;2023-12-04T09:09:51;0.80;80.96
69009;SHT31;56065;52.472;13.380;2023-12-04T09:12:16;0.75;80.76
69009;SHT31;56065;52.472;13.380;2023-12-04T09:14:42;0.72;81.11
69009;SHT31;56065;52.472;13.380;2023-12-04T09:17:08;0.68;81.00
69009;SHT31;56065;52.472;13.380;2023-12-04T09:19:33;0.61;80.98
69009;SHT31;56065;52.472;13.380;2023-12-04T09:21:58;0.77;81.52
69009;SHT31;56065;52.472;13.380;2023-12-04T09:24:24;0.63;81.34
69009;SHT31;56065;52.472;13.380;2023-12-04T09:26:49;0.76;80.98
69009;SHT31;56065;52.472;13.380;2023-12-04T09:29:15;0.72;81.35
69009;SHT31;56065;52.472;13.380;2023-12-04T09:31:41;0.70;81.24
69009;SHT31;56065;52.472;13.380;2023-12-04T09:34:07;0.82;80.99
69009;SHT31;56065;52.472;13.380;2023-12-04T09:36:33;0.79;80.84
69009;SHT31;56065;52.472;13.380;2023-12-04T09:38:59;0.79;80.78
69009;SHT31;56065;52.472;13.380;2023-12-04T09:41:24;0.79;80.76
69009;SHT31;56065;52.472;13.380;2023-12-04T09:43:50;0.89;80.51
69009;SHT31;56065;52.472;13.380;2023-12-04T09:46:17;0.80;80.46
69009;SHT31;56065;52.472;13.380;2023-12-04T09:48:43;0.90;81.09
69009;SHT31;56065;52.472;13.380;2023-12-04T09:51:09;0.89;80.39
69009;SHT31;56065;52.472;13.380;2023-12-04T09:53:35;0.90;80.22
69009;SHT31;56065;52.472;13.380;2023-12-04T09:56:03;1.01;80.86
69009;SHT31;56065;52.472;13.380;2023-12-04T09:58:29;1.12;80.60
69009;SHT31;56065;52.472;13.380;2023-12-04T10:00:56;1.16;79.92
69009;SHT31;56065;52.472;13.380;2023-12-04T10:03:21;1.23;80.22
69009;SHT31;56065;52.472;13.380;2023-12-04T10:05:48;1.27;80.02
69009;SHT31;56065;52.472;13.380;2023-12-04T10:08:14;1.27;79.49
69009;SHT31;56065;52.472;13.380;2023-12-04T10:10:39;1.33;79.63
69009;SHT31;56065;52.472;13.380;2023-12-04T10:13:05;1.43;79.96
69009;SHT31;56065;52.472;13.380;2023-12-04T10:15:31;1.44;79.44
69009;SHT31;56065;52.472;13.380;2023-12-04T10:17:57;1.52;79.57
69009;SHT31;56065;52.472;13.380;2023-12-04T10:20:23;1.72;79.98
69009;SHT31;56065;52.472;13.380;2023-12-04T10:22:55;1.79;79.12
69009;SHT31;56065;52.472;13.380;2023-12-04T10:25:20;1.89;78.68
69009;SHT31;56065;52.472;13.380;2023-12-04T10:27:47;1.83;78.24
69009;SHT31;56065;52.472;13.380;2023-12-04T10:30:29;1.74;78.48
69009;SHT31;56065;52.472;13.380;2023-12-04T10:33:02;1.75;79.12
69009;SHT31;56065;52.472;13.380;2023-12-04T10:35:37;1.86;78.97
69009;SHT31;56065;52.472;13.380;2023-12-04T10:38:03;1.98;78.28
69009;SHT31;56065;52.472;13.380;2023-12-04T10:40:30;2.06;78.27
69009;SHT31;56065;52.472;13.380;2023-12-04T10:43:11;2.02;77.99
69009;SHT31;56065;52.472;13.380;2023-12-04T10:45:37;2.02;77.99
69009;SHT31;56065;52.472;13.380;2023-12-04T10:48:04;2.22;78.54
69009;SHT31;56065;52.472;13.380;2023-12-04T10:50:32;2.37;77.47
69009;SHT31;56065;52.472;13.380;2023-12-04T10:53:00;2.46;77.70
69009;SHT31;56065;52.472;13.380;2023-12-04T10:55:26;2.58;77.00
69009;SHT31;56065;52.472;13.380;2023-12-04T10:57:53;2.74;76.81
69009;SHT31;56065;52.472;13.380;2023-12-04T11:00:20;2.83;77.06
69009;SHT31;56065;52.472;13.380;2023-12-04T11:02:47;2.91;76.60
69009;SHT31;56065;52.472;13.380;2023-12-04T11:05:15;2.85;76.44
69009;SHT31;56065;52.472;13.380;2023-12-04T11:07:51;2.83;76.38
69009;SHT31;56065;52.472;13.380;2023-12-04T11:10:21;2.70;76.49
69009;SHT31;56065;52.472;13.380;2023-12-04T11:12:51;2.60;76.71
69009;SHT31;56065;52.472;13.380;2023-12-04T11:15:22;2.44;77.00
69009;SHT31;56065;52.472;13.380;2023-12-04T11:17:52;2.36;77.53
69009;SHT31;56065;52.472;13.380;2023-12-04T11:20:20;2.33;77.60
69009;SHT31;56065;52.472;13.380;2023-12-04T11:22:49;2.32;77.73
69009;SHT31;56065;52.472;13.380;2023-12-04T11:25:15;2.34;77.59
69009;SHT31;56065;52.472;13.380;2023-12-04T11:27:41;2.33;77.43
69009;SHT31;56065;52.472;13.380;2023-12-04T11:30:08;2.22;77.52
69009;SHT31;56065;52.472;13.380;2023-12-04T11:32:46;2.27;78.34
69009;SHT31;56065;52.472;13.380;2023-12-04T11:35:14;2.23;77.92
69009;SHT31;56065;52.472;13.380;2023-12-04T11:37:41;2.38;78.14
69009;SHT31;56065;52.472;13.380;2023-12-04T11:40:07;2.24;78.07
69009;SHT31;56065;52.472;13.380;2023-12-04T11:42:33;2.24;78.19
69009;SHT31;56065;52.472;13.380;2023-12-04T11:44:58;2.41;77.89
69009;SHT31;56065;52.472;13.380;2023-12-04T11:47:24;2.34;78.07
69009;SHT31;56065;52.472;13.380;2023-12-04T11:49:49;2.50;78.07
69009;SHT31;56065;52.472;13.380;2023-12-04T11:52:15;2.65;78.00
69009;SHT31;56065;52.472;13.380;2023-12-04T11:57:22;2.67;77.66
69009;SHT31;56065;52.472;13.380;2023-12-04T11:59:49;2.78;77.47
69009;SHT31;56065;52.472;13.380;2023-12-04T12:02:15;2.71;77.45
69009;SHT31;56065;52.472;13.380;2023-12-04T12:04:40;2.73;77.36
69009;SHT31;56065;52.472;13.380;2023-12-04T12:07:06;2.74;77.70
69009;SHT31;56065;52.472;13.380;2023-12-04T12:09:35;2.60;77.52
69009;SHT31;56065;52.472;13.380;2023-12-04T12:12:01;2.48;77.61
69009;SHT31;56065;52.472;13.380;2023-12-04T12:14:28;2.34;78.25
69009;SHT31;56065;52.472;13.380;2023-12-04T12:17:00;2.37;78.76
69009;SHT31;56065;52.472;13.380;2023-12-04T12:19:26;2.34;78.33
69009;SHT31;56065;52.472;13.380;2023-12-04T12:21:52;2.23;78.93
69009;SHT31;56065;52.472;13.380;2023-12-04T12:24:18;2.10;78.93
69009;SHT31;56065;52.472;13.380;2023-12-04T12:26:44;2.09;79.28
69009;SHT31;56065;52.472;13.380;2023-12-04T12:29:10;2.12;79.67
69009;SHT31;56065;52.472;13.380;2023-12-04T12:31:36;2.22;79.47
69009;SHT31;56065;52.472;13.380;2023-12-04T12:34:01;2.23;79.20
69009;SHT31;56065;52.472;13.380;2023-12-04T12:36:28;2.13;78.99
69009;SHT31;56065;52.472;13.380;2023-12-04T12:38:53;2.13;79.70
69009;SHT31;56065;52.472;13.380;2023-12-04T12:41:19;2.10;79.47
69009;SHT31;56065;52.472;13.380;2023-12-04T12:43:45;2.15;79.42
69009;SHT31;56065;52.472;13.380;2023-12-04T12:46:11;2.05;79.71
69009;SHT31;56065;52.472;13.380;2023-12-04T12:48:36;2.02;79.76
69009;SHT31;56065;52.472;13.380;2023-12-04T12:51:02;2.01;79.89
69009;SHT31;56065;52.472;13.380;2023-12-04T12:53:27;1.98;80.00
69009;SHT31;56065;52.472;13.380;2023-12-04T12:55:53;1.96;80.40
69009;SHT31;56065;52.472;13.380;2023-12-04T12:58:19;1.96;80.27
69009;SHT31;56065;52.472;13.380;2023-12-04T13:00:46;1.98;80.22
69009;SHT31;56065;52.472;13.380;2023-12-04T13:03:18;1.95;80.33
69009;SHT31;56065;52.472;13.380;2023-12-04T13:05:44;1.91;80.66
69009;SHT31;56065;52.472;13.380;2023-12-04T13:08:10;1.98;80.65
69009;SHT31;56065;52.472;13.380;2023-12-04T13:10:40;1.99;80.29
69009;SHT31;56065;52.472;13.380;2023-12-04T13:13:18;1.95;80.77
69009;SHT31;56065;52.472;13.380;2023-12-04T13:15:43;1.98;80.40
69009;SHT31;56065;52.472;13.380;2023-12-04T13:18:09;1.85;80.56
69009;SHT31;56065;52.472;13.380;2023-12-04T13:20:35;1.82;80.86
69009;SHT31;56065;52.472;13.380;2023-12-04T13:23:03;1.79;80.74
69009;SHT31;56065;52.472;13.380;2023-12-04T13:25:28;1.76;81.37
69009;SHT31;56065;52.472;13.380;2023-12-04T13:27:53;1.76;81.02
69009;SHT31;56065;52.472;13.380;2023-12-04T13:30:19;1.86;81.20
69009;SHT31;56065;52.472;13.380;2023-12-04T13:32:45;1.87;80.96
69009;SHT31;56065;52.472;13.380;2023-12-04T13:35:11;1.81;81.41
69009;SHT31;56065;52.472;13.380;2023-12-04T13:37:37;1.85;81.07
69009;SHT31;56065;52.472;13.380;2023-12-04T13:40:04;1.79;81.08
69009;SHT31;56065;52.472;13.380;2023-12-04T13:42:32;1.83;80.91
69009;SHT31;56065;52.472;13.380;2023-12-04T13:45:16;1.79;80.98
69009;SHT31;56065;52.472;13.380;2023-12-04T13:47:42;1.76;80.88
69009;SHT31;56065;52.472;13.380;2023-12-04T13:50:09;1.76;81.49
69009;SHT31;56065;52.472;13.380;2023-12-04T13:52:35;1.75;81.00
69009;SHT31;56065;52.472;13.380;2023-12-04T13:55:00;1.72;80.99
69009;SHT31;56065;52.472;13.380;2023-12-04T13:57:26;1.75;81.17
69009;SHT31;56065;52.472;13.380;2023-12-04T13:59:57;1.66;81.09
69009;SHT31;56065;52.472;13.380;2023-12-04T14:02:22;1.66;81.17
69009;SHT31;56065;52.472;13.380;2023-12-04T14:04:48;1.56;81.14
69009;SHT31;56065;52.472;13.380;2023-12-04T14:07:14;1.56;81.58
69009;SHT31;56065;52.472;13.380;2023-12-04T14:09:39;1.58;81.54
69009;SHT31;56065;52.472;13.380;2023-12-04T14:12:06;1.51;81.28
69009;SHT31;56065;52.472;13.380;2023-12-04T14:14:31;1.52;81.47
69009;SHT31;56065;52.472;13.380;2023-12-04T14:16:58;1.52;81.37
69009;SHT31;56065;52.472;13.380;2023-12-04T14:19:24;1.48;81.58
69009;SHT31;56065;52.472;13.380;2023-12-04T14:21:49;1.50;81.67
69009;SHT31;56065;52.472;13.380;2023-12-04T14:24:14;1.47;81.91
69009;SHT31;56065;52.472;13.380;2023-12-04T14:26:40;1.47;81.57
69009;SHT31;56065;52.472;13.380;2023-12-04T14:29:05;1.43;81.62
69009;SHT31;56065;52.472;13.380;2023-12-04T14:31:36;1.45;81.78
69009;SHT31;56065;52.472;13.380;2023-12-04T14:34:01;1.45;81.51
69009;SHT31;56065;52.472;13.380;2023-12-04T14:36:28;1.40;81.44
69009;SHT31;56065;52.472;13.380;2023-12-04T14:38:56;1.37;81.47
69009;SHT31;56065;52.472;13.380;2023-12-04T14:41:21;1.34;81.97
69009;SHT31;56065;52.472;13.380;2023-12-04T14:43:46;1.38;81.94
69009;SHT31;56065;52.472;13.380;2023-12-04T14:46:12;1.43;81.89
69009;SHT31;56065;52.472;13.380;2023-12-04T14:48:38;1.34;81.71
69009;SHT31;56065;52.472;13.380;2023-12-04T14:51:07;1.35;81.73
69009;SHT31;56065;52.472;13.380;2023-12-04T14:53:39;1.34;81.82
69009;SHT31;56065;52.472;13.380;2023-12-04T14:56:35;1.27;82.02
69009;SHT31;56065;52.472;13.380;2023-12-04T14:59:01;1.19;82.04
69009;SHT31;56065;52.472;13.380;2023-12-04T15:01:38;1.23;82.35
69009;SHT31;56065;52.472;13.380;2023-12-04T15:04:06;1.23;82.47
69009;SHT31;56065;52.472;13.380;2023-12-04T15:06:54;1.20;82.36
69009;SHT31;56065;52.472;13.380;2023-12-04T15:09:34;1.17;82.59
69009;SHT31;56065;52.472;13.380;2023-12-04T15:12:18;1.13;82.58
69009;SHT31;56065;52.472;13.380;2023-12-04T15:15:01;1.08;82.62
69009;SHT31;56065;52.472;13.380;2023-12-04T15:17:38;1.16;82.44
69009;SHT31;56065;52.472;13.380;2023-12-04T15:20:26;1.22;82.47